Time,TemperatureF,DewpointF,PressureIn,WindDirection,WindDirectionDegrees,WindSpeedMPH,WindSpeedGustMPH,Humidity,HourlyPrecipIn,Conditions,Clouds,dailyrainin,SoftwareType,DateUTC
2017-08-17 00:01:00,72.5,67.7,30.10,SE,130,0.0,0.0,85,0.00,SCT,,0.00,WeatherDisplay:10.37,2017-08-17 04:01:00,
2017-08-17 00:06:00,72.5,67.7,30.10,SE,130,0.0,0.0,85,0.00,SCT,,0.00,WeatherDisplay:10.37,2017-08-17 04:06:00,
2017-08-17 00:11:00,72.7,67.9,30.10,SE,130,0.0,0.0,85,0.00,SCT,,0.00,WeatherDisplay:10.37,2017-08-17 04:11:00,
2017-08-17 00:16:00,72.7,67.9,30.11,SE,130,0.0,0.0,85,0.00,SCT,,0.00,WeatherDisplay:10.37,2017-08-17 04:16:00,
2017-08-17 00:21:00,72.5,67.7,30.10,SE,130,0.0,0.0,85,0.00,SCT,,0.00,WeatherDisplay:10.37,2017-08-17 04:21:00,
2017-08-17 00:26:00,72.5,67.7,30.10,SE,130,0.0,0.0,85,0.00,SCT,,0.00,WeatherDisplay:10.37,2017-08-17 04:26:00,
2017-08-17 00:31:00,72.5,68.1,30.10,SE,130,0.0,0.0,86,0.00,SCT,,0.00,WeatherDisplay:10.37,2017-08-17 04:31:00,
2017-08-17 00:36:00,72.5,68.1,30.10,SE,130,0.0,0.0,86,0.00,SCT,,0.00,WeatherDisplay:10.37,2017-08-17 04:36:00,
2017-08-17 00:41:00,72.5,68.1,30.10,SE,130,0.0,0.0,86,0.00,SCT,,0.00,WeatherDisplay:10.37,2017-08-17 04:41:00,
2017-08-17 00:46:00,72.3,67.9,30.09,SE,130,0.0,0.0,86,0.00,SCT,,0.00,WeatherDisplay:10.37,2017-08-17 04:46:00,
2017-08-17 00:51:00,72.3,67.6,30.09,SE,130,0.0,0.0,85,0.00,SCT,,0.00,WeatherDisplay:10.37,2017-08-17 04:51:00,
2017-08-17 00:56:00,72.3,67.6,30.09,SE,130,0.0,0.0,85,0.00,SCT,,0.00,WeatherDisplay:10.37,2017-08-17 04:56:00,
2017-08-17 01:01:00,72.1,67.4,30.09,SE,130,0.0,0.0,85,0.00,CLR,,0.00,WeatherDisplay:10.37,2017-08-17 05:01:00,
2017-08-17 01:06:00,72.1,67.4,30.09,SE,130,0.0,0.0,85,0.00,CLR,,0.00,WeatherDisplay:10.37,2017-08-17 05:06:00,
2017-08-17 01:11:00,72.1,67.4,30.09,SE,130,0.0,0.0,85,0.00,CLR,,0.00,WeatherDisplay:10.37,2017-08-17 05:11:00,
2017-08-17 01:16:00,72.0,67.2,30.09,SE,130,0.0,0.0,85,0.00,CLR,,0.00,WeatherDisplay:10.37,2017-08-17 05:16:00,
2017-08-17 01:21:00,71.8,67.0,30.09,SE,130,0.0,0.0,85,0.00,CLR,,0.00,WeatherDisplay:10.37,2017-08-17 05:21:00,
2017-08-17 01:26:00,71.8,67.0,30.10,SE,130,0.0,0.0,85,0.00,CLR,,0.00,WeatherDisplay:10.37,2017-08-17 05:26:00,
2017-08-17 01:31:00,71.6,66.8,30.10,SE,130,0.0,0.0,85,0.00,CLR,,0.00,WeatherDisplay:10.37,2017-08-17 05:31:00,
2017-08-17 01:36:00,71.4,67.0,30.09,SE,130,0.0,0.0,86,0.00,CLR,,0.00,WeatherDisplay:10.37,2017-08-17 05:36:00,
2017-08-17 01:41:00,71.4,67.0,30.09,SE,130,0.0,0.0,86,0.00,CLR,,0.00,WeatherDisplay:10.37,2017-08-17 05:41:00,
2017-08-17 01:46:00,71.2,67.2,30.09,SE,130,0.0,0.0,87,0.00,CLR,,0.00,WeatherDisplay:10.37,2017-08-17 05:46:00,
2017-08-17 01:51:00,71.2,67.2,30.09,SE,130,0.0,0.0,87,0.00,CLR,,0.00,WeatherDisplay:10.37,2017-08-17 05:51:00,
2017-08-17 01:56:00,71.1,67.3,30.08,SE,130,0.0,0.0,88,0.00,CLR,,0.00,WeatherDisplay:10.37,2017-08-17 05:56:00,
2017-08-17 02:01:00,71.1,67.3,30.08,SE,130,0.0,0.0,88,0.00,CLR,,0.00,WeatherDisplay:10.37,2017-08-17 06:01:00,
2017-08-17 02:06:00,71.1,67.3,30.08,SE,130,0.0,0.0,88,0.00,CLR,,0.00,WeatherDisplay:10.37,2017-08-17 06:06:00,
2017-08-17 02:11:00,70.9,67.1,30.09,SE,130,0.0,0.0,88,0.00,CLR,,0.00,WeatherDisplay:10.37,2017-08-17 06:11:00,
2017-08-17 02:16:00,70.7,67.0,30.08,SE,130,0.0,0.0,88,0.00,CLR,,0.00,WeatherDisplay:10.37,2017-08-17 06:16:00,
2017-08-17 02:21:00,70.7,67.0,30.08,SE,130,0.0,0.0,88,0.00,CLR,,0.00,WeatherDisplay:10.37,2017-08-17 06:21:00,
2017-08-17 02:26:00,70.7,67.3,30.08,SE,130,0.0,0.0,89,0.00,CLR,,0.00,WeatherDisplay:10.37,2017-08-17 06:26:00,
2017-08-17 02:31:00,70.5,67.1,30.08,SE,130,0.0,0.0,89,0.00,CLR,,0.00,WeatherDisplay:10.37,2017-08-17 06:31:00,
2017-08-17 02:36:00,70.5,67.1,30.08,SE,130,0.0,0.0,89,0.00,CLR,,0.00,WeatherDisplay:10.37,2017-08-17 06:36:00,
2017-08-17 02:37:00,70.3,66.9,30.08,SE,130,0.0,0.0,89,0.00,CLR,,0.00,WeatherDisplay:10.37,2017-08-17 06:37:00,
2017-08-17 02:42:00,70.2,66.8,30.08,SE,130,0.0,0.0,89,0.00,CLR,,0.00,WeatherDisplay:10.37,2017-08-17 06:42:00,
2017-08-17 02:47:00,70.2,66.8,30.07,SE,130,0.0,0.0,89,0.00,CLR,,0.00,WeatherDisplay:10.37,2017-08-17 06:47:00,
2017-08-17 02:52:00,70.0,66.6,30.07,SE,130,0.0,0.0,89,0.00,CLR,,0.00,WeatherDisplay:10.37,2017-08-17 06:52:00,
2017-08-17 02:57:00,70.0,66.9,30.07,SE,130,0.0,0.0,90,0.00,CLR,,0.00,WeatherDisplay:10.37,2017-08-17 06:57:00,
2017-08-17 03:02:00,69.8,66.7,30.07,SE,130,0.0,0.0,90,0.00,CLR,,0.00,WeatherDisplay:10.37,2017-08-17 07:02:00,
2017-08-17 03:07:00,69.8,66.7,30.07,SE,130,0.0,0.0,90,0.00,CLR,,0.00,WeatherDisplay:10.37,2017-08-17 07:07:00,
2017-08-17 03:12:00,69.6,66.9,30.06,SE,130,0.0,0.0,91,0.00,CLR,,0.00,WeatherDisplay:10.37,2017-08-17 07:12:00,
2017-08-17 03:17:00,69.6,66.9,30.07,SE,130,0.0,0.0,91,0.00,CLR,,0.00,WeatherDisplay:10.37,2017-08-17 07:17:00,
2017-08-17 03:22:00,69.4,66.7,30.07,SE,130,0.0,0.0,91,0.00,CLR,,0.00,WeatherDisplay:10.37,2017-08-17 07:22:00,
2017-08-17 03:27:00,69.4,66.7,30.06,SE,130,0.0,0.0,91,0.00,CLR,,0.00,WeatherDisplay:10.37,2017-08-17 07:27:00,
2017-08-17 03:32:00,69.4,66.7,30.07,SE,130,0.0,0.0,91,0.00,CLR,,0.00,WeatherDisplay:10.37,2017-08-17 07:32:00,
2017-08-17 03:37:00,69.3,66.5,30.07,SE,130,0.0,0.0,91,0.00,CLR,,0.00,WeatherDisplay:10.37,2017-08-17 07:37:00,
2017-08-17 03:42:00,69.3,66.8,30.07,SE,130,0.0,0.0,92,0.00,BKN,,0.00,WeatherDisplay:10.37,2017-08-17 07:42:00,
2017-08-17 03:47:00,69.3,66.8,30.07,SE,130,0.0,0.0,92,0.00,BKN,,0.00,WeatherDisplay:10.37,2017-08-17 07:47:00,
2017-08-17 03:52:00,69.1,66.7,30.07,SE,130,0.0,0.0,92,0.00,BKN,,0.00,WeatherDisplay:10.37,2017-08-17 07:52:00,
2017-08-17 03:57:00,68.9,66.5,30.07,SE,130,0.0,0.0,92,0.00,BKN,,0.00,WeatherDisplay:10.37,2017-08-17 07:57:00,
2017-08-17 04:02:00,68.9,66.5,30.07,SE,130,0.0,0.0,92,0.00,OVC,,0.00,WeatherDisplay:10.37,2017-08-17 08:02:00,
2017-08-17 04:07:00,68.9,66.5,30.07,SE,130,0.0,0.0,92,0.00,OVC,,0.00,WeatherDisplay:10.37,2017-08-17 08:07:00,
2017-08-17 04:12:00,68.7,66.3,30.07,SE,130,0.0,0.0,92,0.00,OVC,,0.00,WeatherDisplay:10.37,2017-08-17 08:12:00,
2017-08-17 04:17:00,68.7,66.3,30.06,SE,130,0.0,0.0,92,0.00,OVC,,0.00,WeatherDisplay:10.37,2017-08-17 08:17:00,
2017-08-17 04:22:00,68.7,66.6,30.06,SE,130,0.0,0.0,93,0.00,OVC,,0.00,WeatherDisplay:10.37,2017-08-17 08:22:00,
2017-08-17 04:27:00,68.5,66.4,30.06,SE,130,0.0,0.0,93,0.00,OVC,,0.00,WeatherDisplay:10.37,2017-08-17 08:27:00,
2017-08-17 04:32:00,68.5,66.4,30.07,SE,130,0.0,0.0,93,0.00,OVC,,0.00,WeatherDisplay:10.37,2017-08-17 08:32:00,
2017-08-17 04:37:00,68.5,66.4,30.06,SE,130,0.0,0.0,93,0.00,OVC,,0.00,WeatherDisplay:10.37,2017-08-17 08:37:00,
2017-08-17 04:42:00,68.5,66.4,30.06,SE,130,0.0,0.0,93,0.00,SCT,,0.00,WeatherDisplay:10.37,2017-08-17 08:42:00,
2017-08-17 04:47:00,68.5,66.4,30.06,SE,130,0.0,0.0,93,0.00,SCT,,0.00,WeatherDisplay:10.37,2017-08-17 08:47:00,
2017-08-17 04:52:00,68.5,66.4,30.06,SE,130,0.0,0.0,93,0.00,SCT,,0.00,WeatherDisplay:10.37,2017-08-17 08:52:00,
2017-08-17 04:57:00,68.4,66.3,30.06,SE,130,0.0,0.0,93,0.00,SCT,,0.00,WeatherDisplay:10.37,2017-08-17 08:57:00,
2017-08-17 05:02:00,68.4,66.3,30.06,SE,130,0.0,0.0,93,0.00,SCT,,0.00,WeatherDisplay:10.37,2017-08-17 09:02:00,
2017-08-17 05:07:00,68.2,66.1,30.06,SE,130,0.0,0.0,93,0.00,SCT,,0.00,WeatherDisplay:10.37,2017-08-17 09:07:00,
2017-08-17 05:12:00,68.2,66.1,30.06,SE,130,0.0,0.0,93,0.00,SCT,,0.00,WeatherDisplay:10.37,2017-08-17 09:12:00,
2017-08-17 05:17:00,68.0,65.9,30.06,SE,130,0.0,0.0,93,0.00,SCT,,0.00,WeatherDisplay:10.37,2017-08-17 09:17:00,
2017-08-17 05:22:00,68.0,65.9,30.06,SE,130,0.0,0.0,93,0.00,SCT,,0.00,WeatherDisplay:10.37,2017-08-17 09:22:00,
2017-08-17 05:27:00,67.8,66.0,30.06,SE,130,0.0,0.0,94,0.00,SCT,,0.00,WeatherDisplay:10.37,2017-08-17 09:27:00,
2017-08-17 05:32:00,67.8,66.0,30.06,SE,130,0.0,0.0,94,0.00,SCT,,0.00,WeatherDisplay:10.37,2017-08-17 09:32:00,
2017-08-17 05:37:00,67.8,66.0,30.06,SE,130,0.0,0.0,94,0.00,SCT,,0.00,WeatherDisplay:10.37,2017-08-17 09:37:00,
2017-08-17 05:42:00,67.8,66.0,30.06,SE,130,0.0,0.0,94,0.00,OVC,,0.00,WeatherDisplay:10.37,2017-08-17 09:42:00,
2017-08-17 05:47:00,67.5,65.7,30.06,SE,130,0.0,0.0,94,0.00,OVC,,0.00,WeatherDisplay:10.37,2017-08-17 09:47:00,
2017-08-17 05:52:00,67.5,65.7,30.06,SE,130,0.0,0.0,94,0.00,OVC,,0.00,WeatherDisplay:10.37,2017-08-17 09:52:00,
2017-08-17 05:57:00,67.5,66.0,30.06,SE,130,0.0,0.0,95,0.00,OVC,,0.00,WeatherDisplay:10.37,2017-08-17 09:57:00,
2017-08-17 06:02:00,67.5,66.0,30.06,SE,130,0.0,0.0,95,0.00,OVC,,0.00,WeatherDisplay:10.37,2017-08-17 10:02:00,